Time;durP1;ratioP1;P1;durP2;ratioP2;P2;SDS_P1;SDS_P2;PMS_P1;PMS_P2;Temp;Humidity;BMP_temperature;BMP_pressure;BME280_temperature;BME280_humidity;BME280_pressure;Samples;Min_cycle;Max_cycle;Signal;HPM_P1;HPM_P2
2021/12/23 00:02:23;;;;;;;59.55;27.13;;;;;;;-2.75;81.89;101636.38;4944099;28;20057;-74
2021/12/23 00:04:51;;;;;;;194.13;74.93;;;;;;;-2.72;81.90;101639.09;4937158;29;20032;-73
2021/12/23 00:07:17;;;;;;;215.38;92.85;;;;;;;-2.75;82.21;101633.81;4945323;28;20031;-73
2021/12/23 00:12:14;;;;;;;196.43;80.82;;;;;;;-2.76;82.32;101612.38;4939719;28;20047;-73
2021/12/23 00:14:41;;;;;;;52.15;25.42;;;;;;;-2.77;82.15;101610.63;4945870;28;20027;-74
2021/12/23 00:23:22;;;;;;;237.35;100.53;;;;;;;-2.80;82.01;101615.59;4950633;28;20113;-73
2021/12/23 00:25:33;;;;;;;88.40;37.65;;;;;;;-2.84;81.89;101590.59;4942743;28;20495;-73
2021/12/23 00:28:01;;;;;;;50.10;27.23;;;;;;;-2.85;81.36;101573.41;4960479;28;20054;-73
2021/12/23 00:30:27;;;;;;;83.65;37.90;;;;;;;-2.86;81.90;101562.28;4945627;28;20039;-74
2021/12/23 00:32:55;;;;;;;136.77;52.88;;;;;;;-2.86;82.02;101579.34;4943271;28;20068;-73
2021/12/23 00:35:21;;;;;;;258.48;93.80;;;;;;;-2.86;81.94;101579.34;4934427;28;20484;-73
2021/12/23 00:37:49;;;;;;;132.68;52.08;;;;;;;-2.85;81.44;101551.19;4949159;28;20107;-74
2021/12/23 00:40:17;;;;;;;191.52;71.63;;;;;;;-2.89;82.06;101549.25;4975012;28;20046;-73
2021/12/23 00:42:45;;;;;;;459.60;161.63;;;;;;;-2.87;81.52;101546.81;4953314;28;20043;-75
2021/12/23 00:45:16;;;;;;;86.97;32.47;;;;;;;-2.86;81.52;101534.06;4942839;28;20047;-73
2021/12/23 00:47:41;;;;;;;209.80;61.67;;;;;;;-2.83;81.46;101556.41;4920688;28;20055;-73
2021/12/23 00:50:08;;;;;;;219.23;67.00;;;;;;;-2.79;81.21;101553.22;4961937;28;20102;-73
2021/12/23 00:52:39;;;;;;;142.55;46.80;;;;;;;-2.76;80.96;101562.75;4947519;28;20038;-74
2021/12/23 00:55:08;;;;;;;;;;;;;;;-2.75;80.91;101565.41;4940560;28;20035;-73
2021/12/23 00:57:39;;;;;;;531.20;183.88;;;;;;;-2.75;81.03;101561.97;4952417;28;19915;-73
2021/12/23 01:00:15;;;;;;;488.92;167.68;;;;;;;-2.80;81.23;101548.91;4949679;28;20098;-74
2021/12/23 01:02:45;;;;;;;136.52;49.55;;;;;;;-2.81;81.49;101550.56;4946286;28;20035;-73
2021/12/23 01:05:19;;;;;;;240.05;99.30;;;;;;;-2.80;81.12;101549.78;4948230;28;20106;-74
2021/12/23 01:07:45;;;;;;;60.63;28.92;;;;;;;-2.78;81.20;101547.28;4951999;28;20042;-74
2021/12/23 01:10:15;;;;;;;69.28;31.05;;;;;;;-2.75;81.31;101551.72;4957073;28;20113;-73
2021/12/23 01:12:48;;;;;;;51.25;23.17;;;;;;;-2.79;81.26;101551.56;4932270;29;20138;-73
2021/12/23 01:15:38;;;;;;;32.05;19.02;;;;;;;-2.76;81.27;101565.34;4952794;28;20035;-73
2021/12/23 01:18:09;;;;;;;32.45;16.65;;;;;;;-2.78;80.91;101553.28;4950023;28;20053;-75
2021/12/23 01:21:02;;;;;;;27.55;16.00;;;;;;;-2.75;81.19;101567.09;4948262;28;20070;-73
2021/12/23 01:23:28;;;;;;;33.33;18.83;;;;;;;-2.72;81.08;101557.00;4961723;28;20047;-73
2021/12/23 01:25:57;;;;;;;91.57;41.20;;;;;;;-2.73;81.03;101547.53;4918394;29;20428;-74
2021/12/23 01:28:25;;;;;;;89.82;42.20;;;;;;;-2.69;80.96;101546.91;4947915;28;20392;-74
2021/12/23 01:30:51;;;;;;;64.47;30.75;;;;;;;-2.71;80.96;101543.38;4950350;28;20090;-73
2021/12/23 01:33:18;;;;;;;60.67;28.60;;;;;;;-2.70;80.44;101546.03;4962924;28;20122;-74
2021/12/23 01:35:50;;;;;;;100.70;44.47;;;;;;;-2.69;80.64;101540.06;4952159;28;20054;-74
2021/12/23 01:38:18;;;;;;;58.45;26.08;;;;;;;-2.68;81.04;101536.72;4919215;29;20039;-74
2021/12/23 01:40:46;;;;;;;88.22;44.45;;;;;;;-2.68;80.64;101528.16;4952025;28;20339;-73
2021/12/23 01:43:17;;;;;;;65.18;31.42;;;;;;;-2.68;81.01;101513.63;4952424;28;20137;-74
2021/12/23 01:45:48;;;;;;;64.05;33.08;;;;;;;-2.71;81.54;101512.59;4935952;28;20035;-74
2021/12/23 01:48:16;;;;;;;56.42;29.33;;;;;;;-2.73;81.91;101514.19;4935381;28;20059;-74
2021/12/23 01:50:45;;;;;;;44.15;24.55;;;;;;;-2.73;81.77;101516.75;4951574;28;20039;-74
2021/12/23 01:53:12;;;;;;;34.37;20.47;;;;;;;-2.73;81.47;101515.09;4933635;29;20448;-74
2021/12/23 01:55:42;;;;;;;33.75;18.95;;;;;;;-2.71;81.41;101510.03;4932350;29;20039;-74
2021/12/23 01:58:12;;;;;;;38.33;24.17;;;;;;;-2.69;81.38;101501.59;4928188;28;20264;-74
2021/12/23 02:00:45;;;;;;;36.88;21.98;;;;;;;-2.67;81.69;101499.09;4948596;28;20495;-74
2021/12/23 02:03:14;;;;;;;43.75;23.65;;;;;;;-2.67;81.53;101493.97;4949633;28;20066;-74
2021/12/23 02:05:44;;;;;;;34.40;20.92;;;;;;;-2.65;81.08;101494.94;4961234;28;20035;-74
2021/12/23 02:08:10;;;;;;;32.97;18.15;;;;;;;-2.63;80.85;101488.19;4976876;28;20031;-74
2021/12/23 02:10:36;;;;;;;34.10;21.23;;;;;;;-2.65;80.88;101479.56;4950223;28;20038;-74
2021/12/23 02:13:02;;;;;;;38.83;21.88;;;;;;;-2.66;80.87;101475.22;4951106;28;20079;-71
2021/12/23 02:15:27;;;;;;;37.13;20.50;;;;;;;-2.67;81.04;101474.34;4980477;28;20035;-71
2021/12/23 02:17:54;;;;;;;35.10;20.20;;;;;;;-2.65;80.71;101477.88;4931725;28;20043;-70
2021/12/23 02:20:29;;;;;;;36.30;21.13;;;;;;;-2.65;80.95;101477.00;4968348;28;20404;-70
2021/12/23 02:22:54;;;;;;;33.22;19.52;;;;;;;-2.69;81.37;101469.94;4951507;28;20042;-71
2021/12/23 02:25:25;;;;;;;30.40;19.42;;;;;;;-2.69;80.87;101480.19;4933294;29;20032;-70
2021/12/23 02:27:53;;;;;;;39.80;21.58;;;;;;;-2.71;81.08;101466.41;4950533;28;20043;-70
2021/12/23 02:30:22;;;;;;;32.42;20.45;;;;;;;-2.73;80.98;101461.22;4951895;28;20038;-70
2021/12/23 02:32:49;;;;;;;31.35;20.20;;;;;;;-2.73;81.10;101462.88;4951022;28;20369;-70
2021/12/23 02:35:18;;;;;;;36.75;19.10;;;;;;;-2.80;80.92;101449.72;4951208;28;20579;-70
2021/12/23 02:37:46;;;;;;;39.20;22.23;;;;;;;-2.84;81.58;101445.25;4976104;28;20472;-70
2021/12/23 02:40:40;;;;;;;37.10;20.33;;;;;;;-2.83;81.44;101457.28;4952778;28;20536;-69
2021/12/23 02:43:18;;;;;;;34.63;19.35;;;;;;;-2.83;81.03;101462.41;4948147;28;20042;-73
2021/12/23 02:45:47;;;;;;;35.55;20.48;;;;;;;-2.84;80.59;101460.63;4948765;28;20371;-73
2021/12/23 02:48:22;;;;;;;28.38;17.88;;;;;;;-2.80;80.52;101472.81;4969308;28;20058;-73
2021/12/23 02:50:51;;;;;;;32.00;17.25;;;;;;;-2.81;80.13;101468.47;4970162;28;20034;-73
2021/12/23 02:53:18;;;;;;;33.60;19.75;;;;;;;-2.81;79.87;101471.03;4972663;28;20034;-73
2021/12/23 02:55:44;;;;;;;31.10;17.77;;;;;;;-2.82;79.89;101469.28;4971734;28;20169;-73
2021/12/23 02:58:12;;;;;;;29.88;18.02;;;;;;;-2.83;79.48;101461.50;4945639;28;20121;-73
2021/12/23 03:00:40;;;;;;;32.33;20.25;;;;;;;-2.85;79.52;101458.00;4919500;28;20491;-73
2021/12/23 03:03:06;;;;;;;33.78;19.70;;;;;;;-2.89;79.85;101436.41;4953085;28;20033;-74
2021/12/23 03:05:34;;;;;;;29.38;18.15;;;;;;;-2.90;79.40;101434.66;4953592;28;20022;-74
2021/12/23 03:08:00;;;;;;;28.63;18.38;;;;;;;-2.91;79.46;101420.06;4953243;28;20027;-73
2021/12/23 03:10:26;;;;;;;29.67;18.33;;;;;;;-2.92;79.57;101425.13;4949894;28;20109;-74
2021/12/23 03:12:54;;;;;;;38.75;19.15;;;;;;;-2.93;79.39;101420.78;4961739;28;20491;-74
2021/12/23 03:15:20;;;;;;;30.48;18.35;;;;;;;-2.98;79.64;101421.44;4953822;28;20399;-74
2021/12/23 03:17:46;;;;;;;32.30;19.67;;;;;;;-3.00;79.95;101424.75;4949931;28;20041;-74
2021/12/23 03:20:12;;;;;;;29.55;19.40;;;;;;;-3.03;79.65;101425.44;4920726;28;20038;-75
2021/12/23 03:22:37;;;;;;;31.75;19.40;;;;;;;-3.06;79.89;101425.28;4972341;28;20023;-74
2021/12/23 03:25:03;;;;;;;34.55;20.42;;;;;;;-3.09;80.20;101426.78;4975284;28;20035;-73
2021/12/23 03:27:29;;;;;;;29.63;17.75;;;;;;;-3.11;80.10;101426.72;4952758;28;20038;-73
2021/12/23 03:29:56;;;;;;;30.05;16.50;;;;;;;-3.13;79.92;101421.50;4940961;28;20125;-74
2021/12/23 03:32:22;;;;;;;30.58;18.77;;;;;;;-3.18;79.97;101412.69;4937895;28;20108;-74
2021/12/23 03:34:48;;;;;;;35.45;20.45;;;;;;;-3.21;80.27;101402.25;4962541;28;20454;-74
2021/12/23 03:37:13;;;;;;;28.75;18.65;;;;;;;-3.22;80.39;101397.97;4944442;28;20047;-73
2021/12/23 03:39:39;;;;;;;36.53;19.88;;;;;;;-3.28;80.64;101392.50;4979892;28;20149;-73
2021/12/23 03:42:05;;;;;;;28.23;18.80;;;;;;;-3.35;80.65;101382.72;4916112;28;20497;-74
2021/12/23 03:44:33;;;;;;;34.63;20.55;;;;;;;-3.38;81.07;101382.56;4964197;28;20046;-74
2021/12/23 03:46:58;;;;;;;36.88;17.98;;;;;;;-3.41;81.24;101392.66;4947983;28;20079;-73
2021/12/23 03:49:24;;;;;;;33.08;17.80;;;;;;;-3.42;81.50;101381.53;4945623;29;20070;-73
2021/12/23 03:51:49;;;;;;;27.42;18.48;;;;;;;-3.39;81.86;101373.09;4932792;29;20036;-75
2021/12/23 03:54:15;;;;;;;35.83;20.60;;;;;;;-3.39;81.20;101370.53;4944900;29;20066;-73
2021/12/23 03:56:41;;;;;;;28.35;16.73;;;;;;;-3.41;81.12;101356.75;4915336;29;20090;-74
2021/12/23 03:59:07;;;;;;;32.70;19.10;;;;;;;-3.49;81.63;101347.00;4974027;28;20027;-73
2021/12/23 04:01:35;;;;;;;35.67;20.13;;;;;;;-3.51;81.90;101320.38;4958941;28;20103;-74
2021/12/23 04:04:01;;;;;;;36.33;21.58;;;;;;;-3.51;82.37;101328.06;4974129;28;20114;-74
2021/12/23 04:06:29;;;;;;;33.03;19.40;;;;;;;-3.47;82.44;101326.56;4945279;28;20027;-74
2021/12/23 04:08:55;;;;;;;37.17;21.40;;;;;;;-3.44;82.83;101316.47;4949286;28;20039;-74
2021/12/23 04:11:21;;;;;;;33.60;20.95;;;;;;;-3.39;82.48;101316.72;4934668;28;20051;-74
2021/12/23 04:13:46;;;;;;;36.13;20.02;;;;;;;-3.33;82.28;101340.13;4957074;28;20058;-73
2021/12/23 04:16:12;;;;;;;31.20;18.42;;;;;;;-3.30;82.05;101337.72;4950126;29;20560;-73
2021/12/23 04:18:37;;;;;;;30.30;20.13;;;;;;;-3.24;82.34;101334.59;4957144;28;20031;-73
2021/12/23 04:21:03;;;;;;;32.50;17.42;;;;;;;-3.19;82.17;101322.88;4951828;28;20053;-74
2021/12/23 04:23:31;;;;;;;41.70;22.65;;;;;;;-3.17;82.19;101317.03;4947588;29;20546;-73
2021/12/23 04:25:58;;;;;;;31.92;20.23;;;;;;;-3.13;82.10;101316.41;4976563;28;20488;-73
2021/12/23 04:28:25;;;;;;;33.67;20.58;;;;;;;-3.07;82.08;101317.53;4950915;28;20079;-74
2021/12/23 04:30:51;;;;;;;37.40;20.65;;;;;;;-3.01;81.90;101322.97;4939130;28;20063;-73
2021/12/23 04:33:17;;;;;;;27.27;16.65;;;;;;;-3.01;82.09;101310.13;4945851;28;20142;-74
2021/12/23 04:35:42;;;;;;;31.27;20.60;;;;;;;-2.96;81.86;101318.91;4950693;29;20425;-73
2021/12/23 04:38:08;;;;;;;38.13;21.02;;;;;;;-2.91;81.55;101330.31;4927719;29;20115;-73
2021/12/23 04:40:35;;;;;;;31.48;18.75;;;;;;;-2.94;81.74;101313.88;4946259;28;20360;-73
2021/12/23 04:43:05;;;;;;;33.80;18.70;;;;;;;-2.95;81.69;101318.13;4948800;28;20094;-74
2021/12/23 04:45:31;;;;;;;;;;;;;;;-2.93;81.76;101298.59;4951000;28;20118;-74
2021/12/23 04:47:57;;;;;;;27.85;16.35;;;;;;;-2.91;81.67;101294.41;4975422;28;20096;-74
2021/12/23 04:50:23;;;;;;;34.45;21.27;;;;;;;-2.96;81.77;101286.50;4954752;28;20032;-74
2021/12/23 04:52:51;;;;;;;39.40;21.65;;;;;;;-2.95;81.56;101271.97;4950691;28;20038;-75
2021/12/23 04:55:19;;;;;;;35.30;19.05;;;;;;;-2.93;81.77;101288.34;4945457;28;20031;-74
2021/12/23 04:57:45;;;;;;;35.20;21.75;;;;;;;-2.93;81.82;101290.00;4946966;28;20027;-74
2021/12/23 05:00:15;;;;;;;40.47;22.02;;;;;;;-2.90;81.81;101295.28;4930434;29;20035;-74
2021/12/23 05:02:41;;;;;;;42.08;21.38;;;;;;;-2.89;81.88;101290.22;4948544;28;20023;-74
2021/12/23 05:05:10;;;;;;;35.50;21.67;;;;;;;-2.86;81.82;101281.81;4942642;29;20038;-74
2021/12/23 05:07:37;;;;;;;36.65;19.63;;;;;;;-2.84;81.79;101272.53;4933086;28;20122;-74
2021/12/23 05:10:05;;;;;;;34.95;20.90;;;;;;;-2.83;81.60;101261.44;4965039;28;20107;-74
2021/12/23 05:12:30;;;;;;;36.00;22.10;;;;;;;-2.81;81.67;101260.72;4952346;28;20035;-74
2021/12/23 05:14:55;;;;;;;37.97;24.60;;;;;;;-2.78;81.85;101260.84;4938142;28;20028;-74
2021/12/23 05:17:21;;;;;;;33.90;19.48;;;;;;;-2.74;81.74;101256.78;4934376;29;20063;-74
2021/12/23 05:19:46;;;;;;;31.83;18.70;;;;;;;-2.73;81.22;101257.63;4949075;28;20095;-74
2021/12/23 05:22:14;;;;;;;35.00;21.35;;;;;;;-2.68;81.49;101262.19;4961225;28;20371;-74
2021/12/23 05:24:40;;;;;;;33.58;19.83;;;;;;;-2.68;81.47;101256.19;4932505;28;20095;-74
2021/12/23 05:27:07;;;;;;;32.47;19.52;;;;;;;-2.66;81.19;101257.13;4979656;28;20401;-74
2021/12/23 05:29:33;;;;;;;37.08;20.30;;;;;;;-2.63;81.47;101252.16;4977105;28;20038;-74
2021/12/23 05:31:59;;;;;;;34.72;20.55;;;;;;;-2.62;81.47;101244.53;4928462;29;20058;-74
2021/12/23 05:34:25;;;;;;;34.65;21.10;;;;;;;-2.61;81.43;101248.84;4934392;29;20035;-75
2021/12/23 05:36:50;;;;;;;30.33;19.48;;;;;;;-2.59;81.53;101243.78;4933495;29;20035;-74
2021/12/23 05:39:16;;;;;;;37.17;20.38;;;;;;;-2.58;81.45;101237.88;4946780;29;20028;-74
2021/12/23 05:41:44;;;;;;;35.15;19.50;;;;;;;-2.57;81.35;101244.75;4948820;28;20123;-73
2021/12/23 05:44:09;;;;;;;37.50;22.45;;;;;;;-2.53;81.35;101253.47;4960770;28;20445;-73
2021/12/23 05:46:34;;;;;;;34.08;22.23;;;;;;;-2.53;81.15;101243.22;4981408;28;20043;-74
2021/12/23 05:49:05;;;;;;;35.17;20.30;;;;;;;-2.49;81.14;101246.00;4953386;28;20121;-74
2021/12/23 05:51:30;;;;;;;32.30;22.80;;;;;;;-2.51;81.57;101232.22;4932945;28;20034;-73
2021/12/23 05:53:56;;;;;;;33.35;22.33;;;;;;;-2.50;81.36;101220.25;4938006;28;20031;-74
2021/12/23 05:56:21;;;;;;;34.22;20.95;;;;;;;-2.50;81.21;101221.16;4955558;28;20035;-74
2021/12/23 05:58:46;;;;;;;38.78;23.40;;;;;;;-2.48;80.81;101226.34;4941000;28;20402;-73
2021/12/23 06:01:12;;;;;;;85.68;43.30;;;;;;;-2.48;81.25;101227.22;4963711;28;20500;-75
2021/12/23 06:03:40;;;;;;;93.43;41.35;;;;;;;-2.45;81.04;101229.94;4967021;28;20114;-74
2021/12/23 06:06:05;;;;;;;41.20;23.00;;;;;;;-2.47;81.45;101230.66;4916906;28;20146;-74
2021/12/23 06:08:31;;;;;;;39.83;23.27;;;;;;;-2.46;80.97;101230.75;4948534;28;20046;-74
2021/12/23 06:10:56;;;;;;;68.35;30.08;;;;;;;-2.42;80.79;101234.34;4937576;28;20062;-73
2021/12/23 06:13:22;;;;;;;35.63;19.42;;;;;;;-2.42;80.99;101238.59;4967183;28;20031;-73
2021/12/23 06:15:47;;;;;;;46.88;23.63;;;;;;;-2.43;80.79;101237.69;4935695;29;20038;-73
2021/12/23 06:18:17;;;;;;;38.00;23.63;;;;;;;-2.43;80.83;101240.28;4943937;28;20049;-73
2021/12/23 06:20:43;;;;;;;34.28;20.35;;;;;;;-2.42;80.79;101238.59;4954424;28;20026;-73
2021/12/23 06:23:08;;;;;;;43.28;23.75;;;;;;;-2.47;81.13;101231.56;4966516;28;20034;-74
2021/12/23 06:25:34;;;;;;;48.75;24.20;;;;;;;-2.49;81.30;101219.47;4938231;28;20034;-75
2021/12/23 06:27:59;;;;;;;76.80;41.53;;;;;;;-2.50;81.25;101213.47;4938037;28;20041;-74
2021/12/23 06:30:24;;;;;;;88.60;41.38;;;;;;;-2.52;81.34;101206.50;4922912;28;20045;-73
2021/12/23 06:32:53;;;;;;;100.68;44.28;;;;;;;-2.52;81.19;101201.34;4934066;29;20515;-73
2021/12/23 06:35:20;;;;;;;52.97;27.50;;;;;;;-2.55;81.43;101202.09;4951606;28;20121;-73
2021/12/23 06:37:46;;;;;;;41.90;23.92;;;;;;;-2.57;81.51;101185.75;4986518;28;20129;-74
2021/12/23 06:40:12;;;;;;;93.68;46.03;;;;;;;-2.58;81.84;101180.53;4970243;28;20130;-73
2021/12/23 06:42:39;;;;;;;44.40;21.95;;;;;;;-2.58;81.67;101186.53;4954656;28;20461;-74
2021/12/23 06:45:06;;;;;;;78.55;41.92;;;;;;;-2.62;81.61;101185.50;4970894;28;20057;-73
2021/12/23 06:47:32;;;;;;;52.83;25.30;;;;;;;-2.62;81.55;101194.91;4964712;28;20138;-73
2021/12/23 06:49:58;;;;;;;89.18;45.42;;;;;;;-2.64;81.64;101182.00;4954038;28;20261;-73
2021/12/23 06:52:23;;;;;;;97.35;49.80;;;;;;;-2.65;81.67;101179.38;4962549;28;20401;-74
2021/12/23 06:54:53;;;;;;;114.20;57.45;;;;;;;-2.64;82.19;101181.13;4962465;28;20425;-74
2021/12/23 06:57:18;;;;;;;62.50;34.97;;;;;;;-2.64;82.18;101166.59;4953614;28;20133;-74
2021/12/23 06:59:44;;;;;;;85.88;46.67;;;;;;;-2.66;82.55;101167.34;4970162;28;20385;-74
2021/12/23 07:02:12;;;;;;;44.45;26.98;;;;;;;-2.64;82.72;101170.88;4962653;28;20042;-73
2021/12/23 07:04:39;;;;;;;35.05;20.63;;;;;;;-2.63;82.55;101167.47;4927113;29;20125;-74
2021/12/23 07:07:12;;;;;;;44.10;26.27;;;;;;;-2.61;81.85;101177.00;4938190;28;20034;-75
2021/12/23 07:09:40;;;;;;;41.63;23.92;;;;;;;-2.59;82.14;101189.91;4954412;28;20055;-75
2021/12/23 07:12:08;;;;;;;38.83;23.50;;;;;;;-2.55;81.88;101186.69;4943459;28;20043;-74
2021/12/23 07:14:35;;;;;;;114.90;45.78;;;;;;;-2.51;82.41;101182.59;4945805;28;20059;-75
2021/12/23 07:17:03;;;;;;;58.88;28.95;;;;;;;-2.49;82.44;101191.22;4954407;28;20058;-73
2021/12/23 07:19:28;;;;;;;60.25;30.17;;;;;;;-2.45;82.15;101183.75;4950732;28;20073;-74
2021/12/23 07:21:54;;;;;;;41.05;22.80;;;;;;;-2.44;81.90;101180.38;4947401;28;20455;-75
2021/12/23 07:24:20;;;;;;;65.03;29.80;;;;;;;-2.41;81.86;101191.56;4928211;28;20039;-74
2021/12/23 07:26:47;;;;;;;97.90;44.53;;;;;;;-2.38;82.19;101186.63;4969937;28;20119;-74
2021/12/23 07:29:12;;;;;;;53.47;27.77;;;;;;;-2.36;81.73;101179.84;4962540;28;20125;-74
2021/12/23 07:31:38;;;;;;;39.53;24.52;;;;;;;-2.35;81.82;101184.19;4978217;28;20193;-74
2021/12/23 07:34:03;;;;;;;44.95;24.40;;;;;;;-2.33;81.80;101187.69;4970026;28;20030;-74
2021/12/23 07:36:29;;;;;;;54.22;26.05;;;;;;;-2.31;82.45;101186.09;4967442;28;20084;-74
2021/12/23 07:38:56;;;;;;;40.25;21.58;;;;;;;-2.30;81.88;101182.69;4946437;28;20051;-74
2021/12/23 07:41:26;;;;;;;145.70;65.40;;;;;;;-2.29;81.79;101184.44;4950402;28;20037;-73
2021/12/23 07:44:03;;;;;;;40.97;23.53;;;;;;;-2.27;81.85;101183.72;4950555;28;20089;-75
2021/12/23 07:46:37;;;;;;;46.05;24.08;;;;;;;-2.24;81.94;101183.00;4960187;28;20291;-74
2021/12/23 07:49:04;;;;;;;53.50;26.85;;;;;;;-2.22;81.42;101189.06;4953532;28;20451;-74
2021/12/23 07:51:30;;;;;;;44.40;24.33;;;;;;;-2.21;81.74;101183.13;4961766;28;20108;-75
2021/12/23 07:53:56;;;;;;;45.70;24.42;;;;;;;-2.19;81.81;101185.75;4951752;28;20520;-74
2021/12/23 07:56:26;;;;;;;39.03;21.60;;;;;;;-2.17;81.70;101195.28;4977976;28;20576;-75
2021/12/23 07:58:53;;;;;;;65.35;31.75;;;;;;;-2.17;81.94;101192.72;4954394;28;20034;-74
2021/12/23 08:01:19;;;;;;;79.10;37.65;;;;;;;-2.16;81.68;101180.75;4937797;28;20062;-74
2021/12/23 08:03:44;;;;;;;73.45;34.25;;;;;;;-2.13;81.78;101183.47;4937838;28;20069;-74
2021/12/23 08:06:10;;;;;;;111.20;46.72;;;;;;;-2.12;81.71;101174.97;4945828;28;20031;-74
2021/12/23 08:08:35;;;;;;;58.45;28.55;;;;;;;-2.11;82.26;101169.88;4945953;28;20046;-74
2021/12/23 08:11:02;;;;;;;81.43;40.03;;;;;;;-2.09;81.98;101173.38;4932914;29;20043;-74
2021/12/23 08:13:30;;;;;;;81.63;41.35;;;;;;;-2.10;82.08;101169.09;4969221;28;20034;-73
2021/12/23 08:16:00;;;;;;;56.63;28.98;;;;;;;-2.10;82.28;101169.09;4954293;28;20122;-73
2021/12/23 08:18:26;;;;;;;40.88;24.05;;;;;;;-2.06;81.86;101167.53;4970407;28;20043;-73
2021/12/23 08:20:52;;;;;;;38.17;22.65;;;;;;;-2.08;81.69;101164.00;4970942;28;20023;-73
2021/12/23 08:23:17;;;;;;;51.65;27.90;;;;;;;-2.04;81.75;101170.16;4932742;29;20526;-73
2021/12/23 08:25:43;;;;;;;39.40;22.63;;;;;;;-2.02;81.96;101173.69;4950162;28;20023;-73
2021/12/23 08:28:09;;;;;;;31.92;21.58;;;;;;;-2.01;81.45;101171.19;4951525;28;20121;-73
2021/12/23 08:30:35;;;;;;;38.45;22.92;;;;;;;-1.98;81.72;101160.19;4949643;29;20105;-73
2021/12/23 08:33:01;;;;;;;62.53;30.77;;;;;;;-1.95;82.06;101171.44;4951331;28;20039;-73
2021/12/23 08:35:28;;;;;;;151.75;60.42;;;;;;;-1.95;81.58;101156.03;4961001;28;20143;-73
2021/12/23 08:37:54;;;;;;;226.15;82.90;;;;;;;-1.92;81.94;101147.59;4960004;28;20034;-73
2021/12/23 08:40:23;;;;;;;121.85;45.58;;;;;;;-1.88;82.31;101152.06;4952454;28;20030;-73
2021/12/23 08:42:52;;;;;;;91.15;38.00;;;;;;;-1.88;81.84;101146.91;4978995;28;20391;-73
2021/12/23 08:45:18;;;;;;;93.13;42.85;;;;;;;-1.88;81.56;101149.50;4958787;28;20372;-73
2021/12/23 08:47:45;;;;;;;248.82;97.15;;;;;;;-1.87;82.03;101140.94;4966414;28;20050;-73
2021/12/23 08:50:14;;;;;;;120.80;55.25;;;;;;;-1.87;81.33;101142.66;4946247;28;20221;-73
2021/12/23 08:52:40;;;;;;;112.28;49.72;;;;;;;-1.85;82.30;101138.44;4950864;28;20031;-68
2021/12/23 08:55:07;;;;;;;112.95;48.22;;;;;;;-1.85;82.55;101118.78;4948472;28;20055;-69
2021/12/23 08:57:35;;;;;;;131.15;48.47;;;;;;;-1.83;82.13;101113.72;4937623;28;20024;-69
2021/12/23 09:00:03;;;;;;;278.42;112.55;;;;;;;-1.81;82.18;101109.50;4971049;28;20035;-69
2021/12/23 09:02:28;;;;;;;61.90;34.10;;;;;;;-1.78;82.59;101107.06;4943129;28;20110;-69
2021/12/23 09:04:53;;;;;;;64.35;35.08;;;;;;;-1.73;82.47;101109.84;4921499;28;20038;-69
2021/12/23 09:07:21;;;;;;;67.18;35.33;;;;;;;-1.67;82.60;101110.97;4948203;28;20062;-68
2021/12/23 09:09:51;;;;;;;45.03;25.88;;;;;;;-1.63;82.22;101109.44;4921580;29;20556;-69
2021/12/23 09:12:19;;;;;;;43.08;26.58;;;;;;;-1.61;81.98;101110.34;4963115;28;20146;-69
2021/12/23 09:14:47;;;;;;;43.55;25.30;;;;;;;-1.54;82.14;101114.06;4947060;28;20129;-69
2021/12/23 09:17:13;;;;;;;44.08;26.13;;;;;;;-1.48;81.56;101115.22;4971052;28;20035;-69
2021/12/23 09:19:40;;;;;;;41.20;25.20;;;;;;;-1.40;81.67;101106.09;4980333;28;20420;-69
2021/12/23 09:22:05;;;;;;;46.92;28.35;;;;;;;-1.32;80.92;101109.00;4971366;28;20122;-69
2021/12/23 09:24:32;;;;;;;178.52;81.70;;;;;;;-1.19;80.87;101104.34;4972026;28;20041;-69
2021/12/23 09:27:36;;;;;;;128.85;62.35;;;;;;;-0.93;80.52;101113.13;4953896;28;20046;-69
2021/12/23 09:35:04;;;;;;;49.58;28.73;;;;;;;-0.16;76.76;101094.53;4972901;28;20237;-70
2021/12/23 09:37:32;;;;;;;44.35;26.70;;;;;;;-0.32;77.26;101103.41;4954971;28;20062;-69
2021/12/23 09:40:03;;;;;;;57.47;27.13;;;;;;;-0.44;77.67;101094.41;4923764;28;20039;-69
2021/12/23 09:42:31;;;;;;;46.20;28.13;;;;;;;-0.51;77.29;101099.28;4953649;28;20060;-70
2021/12/23 09:45:01;;;;;;;39.65;23.88;;;;;;;-0.59;78.08;101089.56;4961891;28;20026;-69
2021/12/23 09:47:30;;;;;;;42.42;26.05;;;;;;;-0.60;78.22;101089.50;4977453;28;20046;-69
2021/12/23 09:49:57;;;;;;;47.38;26.58;;;;;;;-0.62;78.56;101080.84;4939518;28;20122;-69
2021/12/23 09:52:23;;;;;;;62.10;34.95;;;;;;;-0.64;78.63;101078.22;4954630;28;20062;-69
2021/12/23 09:54:49;;;;;;;63.50;35.15;;;;;;;-0.63;78.99;101071.34;4971535;28;20482;-69
2021/12/23 09:57:15;;;;;;;37.50;24.08;;;;;;;-0.64;78.68;101072.19;4970575;28;20361;-69
2021/12/23 09:59:42;;;;;;;47.63;27.90;;;;;;;-0.69;79.36;101066.84;4955734;28;20034;-69
2021/12/23 10:02:08;;;;;;;74.63;41.67;;;;;;;-0.67;79.25;101065.22;4949152;28;20113;-70
2021/12/23 10:04:34;;;;;;;48.00;26.98;;;;;;;-0.67;79.15;101066.94;4987571;28;20177;-69
2021/12/23 10:07:00;;;;;;;70.63;38.03;;;;;;;-0.65;79.34;101058.41;4954870;28;20125;-69
2021/12/23 10:09:45;;;;;;;63.38;35.42;;;;;;;-0.62;79.32;101067.97;4954874;28;20042;-70
2021/12/23 10:31:34;;;;;;;37.40;23.15;;;;;;;-0.44;79.34;101027.44;4959206;28;20049;-70
2021/12/23 10:39:37;;;;;;;39.38;24.42;;;;;;;-0.31;79.39;100991.84;4970958;28;20034;-71
2021/12/23 10:42:21;;;;;;;41.40;24.17;;;;;;;-0.29;79.15;100977.31;4939739;28;20041;-71
2021/12/23 10:44:52;;;;;;;40.15;23.27;;;;;;;-0.25;79.63;100980.03;4958865;28;20046;-71
2021/12/23 10:47:33;;;;;;;42.20;23.73;;;;;;;-0.22;79.48;100969.84;4954797;28;20050;-70
2021/12/23 10:53:13;;;;;;;43.10;24.33;;;;;;;-0.11;79.48;100974.50;4972223;28;20037;-70
2021/12/23 10:58:23;;;;;;;40.75;23.33;;;;;;;-0.07;79.21;100961.78;4947486;28;20137;-71
2021/12/23 11:00:53;;;;;;;43.22;23.30;;;;;;;-0.01;78.85;100949.09;4942700;28;20506;-71
2021/12/23 11:03:35;;;;;;;39.83;26.92;;;;;;;0.00;78.90;100947.41;4953457;28;20041;-71
2021/12/23 11:06:16;;;;;;;45.78;24.52;;;;;;;0.03;78.66;100954.34;4950875;28;20034;-71
2021/12/23 11:08:58;;;;;;;38.92;22.98;;;;;;;0.07;79.23;100958.78;4955295;28;20042;-71
2021/12/23 11:11:44;;;;;;;39.45;23.13;;;;;;;0.14;78.68;100942.69;4952328;28;20062;-71
2021/12/23 11:42:02;;;;;;;41.92;24.83;;;;;;;1.35;76.30;100888.66;4970199;28;20113;-76
2021/12/23 11:44:31;;;;;;;39.72;23.63;;;;;;;1.70;75.86;100888.66;4953899;28;20061;-75
2021/12/23 11:47:13;;;;;;;37.67;25.58;;;;;;;1.85;74.68;100875.28;4936534;28;20058;-75
2021/12/23 11:49:42;;;;;;;47.30;28.40;;;;;;;2.07;74.47;100865.44;4949001;28;20026;-75
2021/12/23 11:52:08;;;;;;;59.22;31.05;;;;;;;2.47;73.17;100870.63;4950626;28;20043;-76
2021/12/23 11:54:38;;;;;;;43.50;24.60;;;;;;;2.59;73.27;100868.31;4982206;28;20026;-76
2021/12/23 11:57:04;;;;;;;57.97;28.20;;;;;;;2.59;73.59;100857.97;4954092;28;20117;-76
2021/12/23 11:59:34;;;;;;;47.08;23.90;;;;;;;2.57;73.13;100854.47;4949327;28;20125;-76
2021/12/23 12:02:11;;;;;;;54.95;27.48;;;;;;;2.59;73.50;100835.53;4953525;28;20062;-76
2021/12/23 12:04:37;;;;;;;46.47;26.00;;;;;;;2.59;73.30;100834.69;4980339;28;20114;-75
2021/12/23 12:07:24;;;;;;;44.05;24.92;;;;;;;2.94;73.46;100826.75;4931488;28;20023;-76
2021/12/23 12:10:20;;;;;;;47.70;25.27;;;;;;;4.30;71.85;100824.66;4950118;28;20054;-76
2021/12/23 12:13:14;;;;;;;44.22;26.42;;;;;;;5.38;66.83;100820.66;4944457;28;20518;-76
2021/12/23 12:15:47;;;;;;;39.90;22.83;;;;;;;5.46;65.55;100820.75;4942487;28;20046;-76
2021/12/23 12:18:15;;;;;;;40.97;24.02;;;;;;;5.48;66.22;100826.81;4970555;28;20037;-76
2021/12/23 12:20:45;;;;;;;40.88;22.33;;;;;;;5.27;66.03;100819.72;4953121;28;20109;-76
2021/12/23 12:23:20;;;;;;;36.37;22.10;;;;;;;5.02;67.46;100811.66;4936956;28;20037;-76
2021/12/23 12:25:56;;;;;;;36.08;21.60;;;;;;;4.68;67.84;100800.03;4964137;28;20297;-76
2021/12/23 12:28:33;;;;;;;34.25;22.30;;;;;;;4.39;68.88;100787.56;4947501;28;20474;-76